createdAt,value
2024-01-15T00:00:08.939Z,5.47
2024-01-15T00:02:40.920Z,5.45
2024-01-15T00:05:10.186Z,7.05
2024-01-15T00:07:38.933Z,7.32
2024-01-15T00:10:08.331Z,5.70
2024-01-15T00:12:37.965Z,6.22
2024-01-15T00:15:09.226Z,5.78
2024-01-15T00:17:38.165Z,5.65
2024-01-15T00:20:08.275Z,5.60
2024-01-15T00:22:37.810Z,6.25
2024-01-15T00:25:08.168Z,6.25
2024-01-15T00:27:38.472Z,6.22
2024-01-15T00:30:10.829Z,6.25
2024-01-15T00:32:39.833Z,5.70
2024-01-15T00:35:08.928Z,6.38
2024-01-15T00:37:37.833Z,5.70
2024-01-15T00:40:09.044Z,5.88
2024-01-15T00:42:37.942Z,6.80
2024-01-15T00:45:10.084Z,6.15
2024-01-15T00:47:39.005Z,5.95
2024-01-15T00:50:09.611Z,6.07
2024-01-15T00:52:38.555Z,6.22
2024-01-15T00:55:08.849Z,6.47
2024-01-15T00:57:37.768Z,6.30
2024-01-15T01:00:10.632Z,6.55
2024-01-15T01:02:39.432Z,5.75
2024-01-15T01:05:08.677Z,5.88
2024-01-15T01:07:37.529Z,6.28
2024-01-15T01:10:07.924Z,5.95
2024-01-15T01:12:36.874Z,5.80
2024-01-15T01:15:06.517Z,7.05
2024-01-15T01:17:37.419Z,6.93
2024-01-15T01:20:09.868Z,7.88
2024-01-15T01:22:38.929Z,6.22
2024-01-15T01:25:08.803Z,6.80
2024-01-15T01:27:38.332Z,5.82
2024-01-15T01:30:08.697Z,6.00
2024-01-15T01:32:38.952Z,6.88
2024-01-15T01:35:09.494Z,6.85
2024-01-15T01:37:38.136Z,6.85
2024-01-15T01:40:08.196Z,6.68
2024-01-15T01:42:36.998Z,7.47
2024-01-15T01:45:06.717Z,6.80
2024-01-15T01:47:35.542Z,5.88
2024-01-15T01:50:07.010Z,6.60
2024-01-15T01:52:36.766Z,6.80
2024-01-15T01:55:07.363Z,6.50
2024-01-15T01:57:37.633Z,6.70
2024-01-15T02:00:08.613Z,6.40
2024-01-15T02:02:43.609Z,5.95
2024-01-15T02:05:17.212Z,7.25
2024-01-15T02:07:47.435Z,6.75
2024-01-15T02:10:16.692Z,6.53
2024-01-15T02:12:49.978Z,6.43
2024-01-15T02:15:19.530Z,6.97
2024-01-15T02:18:02.496Z,6.75
2024-01-15T02:20:34.618Z,6.50
2024-01-15T02:23:15.092Z,6.80
2024-01-15T02:28:15.644Z,7.93
2024-01-15T02:30:45.521Z,7.00
2024-01-15T02:33:15.851Z,7.00
2024-01-15T02:35:45.030Z,6.50
2024-01-15T02:38:15.275Z,6.40
2024-01-15T02:40:44.411Z,7.25
2024-01-15T02:43:13.342Z,6.72
2024-01-15T02:45:42.283Z,8.30
2024-01-15T02:48:11.142Z,7.70
2024-01-15T02:50:39.931Z,7.30
2024-01-15T02:53:08.693Z,7.30
2024-01-15T02:55:38.963Z,8.70
2024-01-15T02:58:07.719Z,8.05
2024-01-15T03:00:36.568Z,8.05
2024-01-15T03:03:05.670Z,7.68
2024-01-15T03:05:34.509Z,8.25
2024-01-15T03:08:03.482Z,7.50
2024-01-15T03:10:32.295Z,7.43
2024-01-15T03:13:02.433Z,8.13
2024-01-15T03:15:31.248Z,7.25
2024-01-15T03:18:00.355Z,7.53
2024-01-15T03:20:30.211Z,7.32
2024-01-15T03:22:58.964Z,7.28
2024-01-15T03:25:27.983Z,7.20
2024-01-15T03:27:56.882Z,7.68
2024-01-15T03:30:27.126Z,7.55
2024-01-15T03:32:56.051Z,7.90
2024-01-15T03:35:25.100Z,8.25
2024-01-15T03:37:53.852Z,7.40
2024-01-15T03:40:23.648Z,7.82
2024-01-15T03:42:52.912Z,8.25
2024-01-15T03:45:21.893Z,7.85
2024-01-15T03:47:52.315Z,8.40
2024-01-15T03:50:21.317Z,9.15
2024-01-15T03:52:50.090Z,8.05
2024-01-15T03:55:18.897Z,8.30
2024-01-15T03:57:48.354Z,9.70
2024-01-15T04:00:19.194Z,18.00
2024-01-15T04:02:48.021Z,8.90
2024-01-15T04:05:18.509Z,8.38
2024-01-15T04:07:48.343Z,9.13
2024-01-15T04:10:17.263Z,7.78
2024-01-15T04:12:48.145Z,6.95
2024-01-15T04:15:17.348Z,8.75
2024-01-15T04:17:46.421Z,7.80
2024-01-15T04:20:17.584Z,8.95
2024-01-15T04:22:46.762Z,7.78
2024-01-15T04:25:16.649Z,8.65
2024-01-15T04:27:46.809Z,7.70
2024-01-15T04:30:16.680Z,10.02
2024-01-15T04:32:45.667Z,8.63
2024-01-15T04:35:15.347Z,8.48
2024-01-15T04:37:47.155Z,9.25
2024-01-15T04:40:16.172Z,9.05
2024-01-15T04:42:47.424Z,8.52
2024-01-15T04:45:16.350Z,9.02
2024-01-15T04:47:45.726Z,9.27
2024-01-15T04:50:14.915Z,9.18
2024-01-15T04:52:43.662Z,8.63
2024-01-15T04:55:13.821Z,8.80
2024-01-15T04:57:42.576Z,8.52
2024-01-15T05:00:12.450Z,9.02
2024-01-15T05:02:41.408Z,11.73
2024-01-15T05:05:10.335Z,8.48
2024-01-15T05:07:39.053Z,9.38
2024-01-15T05:10:09.176Z,8.55
2024-01-15T05:12:39.448Z,8.88
2024-01-15T05:15:08.726Z,8.23
2024-01-15T05:17:37.683Z,9.50
2024-01-15T05:20:25.226Z,8.80
2024-01-15T05:22:53.959Z,12.45
2024-01-15T05:25:22.984Z,14.48
2024-01-15T05:27:53.216Z,10.60
2024-01-15T05:30:22.394Z,9.30
2024-01-15T05:32:51.294Z,10.48
2024-01-15T05:35:20.129Z,10.18
2024-01-15T05:37:49.668Z,9.23
2024-01-15T05:40:19.602Z,9.20
2024-01-15T05:42:48.580Z,8.18
2024-01-15T05:45:20.099Z,10.23
2024-01-15T05:47:49.102Z,9.35
2024-01-15T05:50:18.066Z,9.32
2024-01-15T05:52:46.793Z,8.30
2024-01-15T05:55:15.895Z,9.23
2024-01-15T05:57:44.667Z,9.48
2024-01-15T06:00:15.588Z,13.40
2024-01-15T06:02:46.310Z,9.85
2024-01-15T06:05:16.661Z,12.05
2024-01-15T06:07:45.583Z,10.57
2024-01-15T06:10:14.371Z,10.20
2024-01-15T06:12:43.274Z,9.88
2024-01-15T06:15:12.886Z,9.82
2024-01-15T06:17:41.796Z,15.27
2024-01-15T06:20:13.681Z,9.57
2024-01-15T06:22:42.590Z,9.68
2024-01-15T06:25:11.479Z,9.55
2024-01-15T06:27:40.355Z,9.73
2024-01-15T06:30:11.258Z,10.35
2024-01-15T06:32:40.600Z,11.32
2024-01-15T06:35:13.053Z,11.88
2024-01-15T06:37:41.929Z,10.13
2024-01-15T06:40:11.642Z,9.35
2024-01-15T06:42:40.398Z,11.32
2024-01-15T06:45:10.541Z,9.52
2024-01-15T06:47:39.983Z,10.43
2024-01-15T06:50:09.274Z,9.60
2024-01-15T06:52:39.602Z,10.90
2024-01-15T06:55:09.414Z,10.85
2024-01-15T06:57:38.589Z,9.98
2024-01-15T07:00:09.941Z,10.88
2024-01-15T07:02:38.792Z,10.32
2024-01-15T07:05:07.915Z,28.45
2024-01-15T07:07:37.063Z,10.77
2024-01-15T07:10:09.040Z,11.18
2024-01-15T07:12:37.971Z,10.35
2024-01-15T07:15:09.516Z,11.43
2024-01-15T07:17:40.982Z,10.27
2024-01-15T07:20:11.420Z,10.73
2024-01-15T07:22:40.583Z,11.48
2024-01-15T07:25:11.197Z,10.05
2024-01-15T07:27:40.007Z,10.00
2024-01-15T07:30:10.510Z,10.63
2024-01-15T07:32:39.453Z,11.40
2024-01-15T07:35:08.503Z,11.20
2024-01-15T07:37:37.753Z,9.77
2024-01-15T07:40:09.803Z,11.02
2024-01-15T07:42:40.456Z,10.48
2024-01-15T07:45:09.436Z,10.07
2024-01-15T07:47:39.838Z,10.35
2024-01-15T07:50:09.092Z,9.85
2024-01-15T07:52:38.085Z,10.75
2024-01-15T07:55:10.675Z,9.98
2024-01-15T07:57:40.982Z,10.07
2024-01-15T08:00:30.105Z,9.70
2024-01-15T08:02:58.901Z,9.95
2024-01-15T08:05:27.754Z,9.73
2024-01-15T08:07:59.315Z,10.25
2024-01-15T08:10:28.257Z,11.10
2024-01-15T08:12:59.010Z,9.43
2024-01-15T08:15:31.281Z,9.70
2024-01-15T08:18:01.064Z,9.95
2024-01-15T08:20:30.117Z,10.85
2024-01-15T08:22:59.723Z,9.90
2024-01-15T08:25:28.780Z,10.13
2024-01-15T08:27:59.428Z,9.63
2024-01-15T08:30:29.393Z,10.35
2024-01-15T08:33:07.817Z,9.85
2024-01-15T08:35:40.208Z,10.43
2024-01-15T08:38:09.365Z,10.07
2024-01-15T08:40:38.179Z,9.95
2024-01-15T08:43:09.073Z,9.27
2024-01-15T08:45:37.881Z,10.73
2024-01-15T08:48:06.890Z,10.68
2024-01-15T08:50:36.719Z,9.98
2024-01-15T08:53:05.756Z,10.13
2024-01-15T08:55:34.568Z,10.18
2024-01-15T08:58:03.375Z,10.07
2024-01-15T09:00:33.616Z,10.20
2024-01-15T09:03:03.368Z,11.25
2024-01-15T09:05:32.534Z,10.57
2024-01-15T09:08:01.314Z,10.88
2024-01-15T09:10:30.266Z,11.07
2024-01-15T09:12:59.603Z,10.18
2024-01-15T09:15:29.133Z,10.65
2024-01-15T09:18:00.424Z,11.00
2024-01-15T09:20:29.515Z,10.77
2024-01-15T09:22:58.305Z,10.63
2024-01-15T09:25:27.089Z,11.25
2024-01-15T09:27:56.209Z,10.13
2024-01-15T09:30:25.629Z,9.70
2024-01-15T09:32:54.560Z,10.75
2024-01-15T09:35:25.564Z,9.07
2024-01-15T09:37:54.509Z,10.25
2024-01-15T09:40:24.162Z,10.50
2024-01-15T09:42:54.586Z,10.18
2024-01-15T09:45:23.660Z,11.15
2024-01-15T09:47:52.772Z,10.55
2024-01-15T09:50:21.778Z,9.90
2024-01-15T09:52:52.634Z,9.52
2024-01-15T09:55:21.529Z,10.85
2024-01-15T09:57:50.542Z,10.27
2024-01-15T10:00:21.018Z,11.15
2024-01-15T10:02:50.874Z,11.18
2024-01-15T10:05:19.833Z,10.55
2024-01-15T10:07:51.281Z,10.45
2024-01-15T10:10:23.150Z,10.18
2024-01-15T10:12:52.607Z,9.50
2024-01-15T10:15:25.435Z,10.45
2024-01-15T10:17:54.544Z,10.88
2024-01-15T10:20:24.411Z,10.75
2024-01-15T10:22:53.493Z,10.25
2024-01-15T10:25:27.185Z,10.80
2024-01-15T10:28:06.373Z,10.00
2024-01-15T10:30:36.014Z,10.48
2024-01-15T10:33:06.807Z,10.73
2024-01-15T10:35:37.081Z,10.35
2024-01-15T10:38:06.573Z,9.80
2024-01-15T10:40:36.971Z,10.80
2024-01-15T10:43:06.120Z,10.20
2024-01-15T10:45:35.846Z,10.93
2024-01-15T10:48:05.784Z,10.38
2024-01-15T10:50:36.733Z,10.40
2024-01-15T10:53:06.728Z,10.77
2024-01-15T10:55:38.800Z,10.40
2024-01-15T10:58:08.698Z,10.60
2024-01-15T11:00:39.575Z,10.80
2024-01-15T11:03:09.252Z,10.00
2024-01-15T11:05:41.110Z,10.68
2024-01-15T11:08:10.283Z,9.80
2024-01-15T11:10:44.396Z,11.20
2024-01-15T11:13:16.611Z,9.63
2024-01-15T11:15:59.028Z,10.15
2024-01-15T11:18:30.134Z,10.32
2024-01-15T11:21:27.611Z,10.82
2024-01-15T11:23:59.497Z,9.23
2024-01-15T11:26:37.158Z,7.15
2024-01-15T11:29:07.265Z,9.68
2024-01-15T11:32:02.576Z,10.90
2024-01-15T11:34:55.384Z,9.25
2024-01-15T11:37:26.981Z,9.88
2024-01-15T11:39:58.001Z,10.32
2024-01-15T11:42:29.159Z,8.15
2024-01-15T11:44:58.103Z,10.32
2024-01-15T11:47:59.945Z,10.77
2024-01-15T11:50:35.239Z,11.02
2024-01-15T11:53:07.437Z,9.55
2024-01-15T11:55:37.959Z,9.80
2024-01-15T11:58:12.020Z,10.00
2024-01-15T12:00:46.828Z,9.90
2024-01-15T12:03:16.039Z,9.43
2024-01-15T12:05:45.471Z,9.23
2024-01-15T12:08:14.539Z,9.18
2024-01-15T12:10:44.253Z,9.98
2024-01-15T12:13:20.148Z,9.13
2024-01-15T12:15:51.254Z,9.85
2024-01-15T12:18:21.415Z,10.27
2024-01-15T12:20:51.119Z,10.10
2024-01-15T12:23:20.358Z,10.25
2024-01-15T12:25:49.713Z,9.93
2024-01-15T12:28:20.222Z,9.95
2024-01-15T12:30:51.476Z,9.85
2024-01-15T12:33:22.451Z,9.70
2024-01-15T12:35:51.710Z,8.98
2024-01-15T12:38:22.610Z,9.18
2024-01-15T12:40:52.321Z,9.57
2024-01-15T12:43:22.562Z,10.15
2024-01-15T12:45:51.669Z,11.40
2024-01-15T12:48:20.636Z,9.95
2024-01-15T12:50:49.901Z,10.55
2024-01-15T12:53:19.196Z,10.07
2024-01-15T12:55:49.256Z,10.20
2024-01-15T12:58:21.177Z,8.98
2024-01-15T13:00:52.013Z,9.10
2024-01-15T13:03:20.955Z,10.20
2024-01-15T13:05:52.599Z,8.88
2024-01-15T13:08:21.868Z,9.98
2024-01-15T13:10:50.970Z,8.38
2024-01-15T13:13:19.865Z,9.32
2024-01-15T13:15:51.301Z,9.80
2024-01-15T13:18:20.215Z,9.82
2024-01-15T13:20:49.952Z,9.13
2024-01-15T13:23:18.807Z,8.88
2024-01-15T13:25:47.665Z,9.25
2024-01-15T13:28:16.539Z,9.75
2024-01-15T13:30:45.993Z,13.38
2024-01-15T13:33:16.508Z,9.93
2024-01-15T13:35:45.391Z,9.52
2024-01-15T13:38:14.157Z,9.88
2024-01-15T13:40:43.256Z,10.00
2024-01-15T13:43:12.126Z,10.38
2024-01-15T13:45:40.950Z,9.40
2024-01-15T13:48:09.844Z,9.05
2024-01-15T13:50:40.696Z,9.45
2024-01-15T13:53:10.963Z,9.45
2024-01-15T13:55:39.831Z,9.38
2024-01-15T13:58:08.580Z,9.98
2024-01-15T14:00:39.101Z,12.23
2024-01-15T14:03:08.156Z,10.00
2024-01-15T14:05:36.978Z,9.85
2024-01-15T14:08:09.188Z,9.30
2024-01-15T14:10:38.716Z,10.20
2024-01-15T14:13:10.080Z,10.02
2024-01-15T14:15:39.391Z,9.25
2024-01-15T14:18:10.313Z,9.68
2024-01-15T14:20:39.131Z,12.20
2024-01-15T14:23:09.757Z,9.95
2024-01-15T14:25:40.583Z,8.82
2024-01-15T14:28:09.414Z,10.23
2024-01-15T14:30:38.318Z,10.40
2024-01-15T14:33:08.305Z,9.68
2024-01-15T14:35:37.117Z,9.50
2024-01-15T14:38:06.282Z,10.15
2024-01-15T14:40:38.638Z,10.15
2024-01-15T14:43:07.431Z,10.60
2024-01-15T14:45:36.264Z,10.93
2024-01-15T14:48:05.646Z,11.02
2024-01-15T14:50:35.480Z,11.20
2024-01-15T14:53:05.522Z,10.82
2024-01-15T14:55:35.717Z,11.45
2024-01-15T14:58:04.961Z,11.48
2024-01-15T15:00:33.838Z,16.30
2024-01-15T15:03:04.454Z,11.65
2024-01-15T15:05:33.552Z,11.18
2024-01-15T15:08:04.018Z,10.48
2024-01-15T15:10:32.840Z,11.02
2024-01-15T15:13:03.057Z,10.50
2024-01-15T15:15:31.986Z,11.70
2024-01-15T15:18:01.474Z,10.77
2024-01-15T15:20:30.514Z,11.52
2024-01-15T15:22:59.481Z,10.75
2024-01-15T15:25:28.364Z,10.55
2024-01-15T15:27:57.342Z,12.23
2024-01-15T15:30:27.726Z,10.88
2024-01-15T15:32:58.587Z,10.25
2024-01-15T15:35:27.745Z,10.82
2024-01-15T15:37:56.587Z,11.70
2024-01-15T15:40:25.512Z,11.43
2024-01-15T15:42:54.406Z,10.88
2024-01-15T15:45:23.498Z,11.18
2024-01-15T15:47:53.864Z,12.40
2024-01-15T15:50:23.345Z,11.18
2024-01-15T15:52:52.382Z,10.63
2024-01-15T15:55:21.935Z,9.85
2024-01-15T15:57:50.838Z,10.00
2024-01-15T16:00:20.078Z,10.52
2024-01-15T16:02:49.012Z,9.05
2024-01-15T16:05:19.864Z,9.85
2024-01-15T16:07:49.266Z,10.90
2024-01-15T16:10:19.192Z,10.80
2024-01-15T16:13:06.907Z,9.32
2024-01-15T16:15:36.846Z,9.88
2024-01-15T16:23:18.792Z,10.02
2024-01-15T16:23:33.505Z,8.82
2024-01-15T16:24:08.817Z,10.00
2024-01-15T16:26:34.273Z,10.52
2024-01-15T16:29:04.714Z,9.45
2024-01-15T16:31:33.967Z,10.80
2024-01-15T16:34:05.403Z,10.57
2024-01-15T16:36:37.184Z,11.13
2024-01-15T16:39:07.663Z,9.90
2024-01-15T16:41:36.593Z,11.10
2024-01-15T16:44:05.975Z,8.70
2024-01-15T16:46:34.797Z,10.15
2024-01-15T16:49:09.379Z,9.18
2024-01-15T16:51:39.730Z,10.63
2024-01-15T16:54:09.157Z,10.68
2024-01-15T16:56:57.225Z,10.57
2024-01-15T16:59:26.000Z,10.10
2024-01-15T17:01:54.978Z,10.60
2024-01-15T17:04:23.825Z,10.05
2024-01-15T17:06:54.100Z,10.68
2024-01-15T17:09:26.381Z,11.85
2024-01-15T17:11:55.255Z,10.05
2024-01-15T17:14:25.189Z,10.68
2024-01-15T17:16:54.049Z,9.95
2024-01-15T17:19:22.961Z,9.02
2024-01-15T17:21:54.458Z,9.82
2024-01-15T17:24:43.362Z,11.18
2024-01-15T17:27:12.394Z,12.20
2024-01-15T17:29:41.960Z,11.15
2024-01-15T17:32:10.922Z,11.32
2024-01-15T17:34:39.760Z,11.50
2024-01-15T17:37:08.509Z,11.65
2024-01-15T17:39:37.712Z,11.30
2024-01-15T17:42:09.521Z,12.43
2024-01-15T17:44:38.446Z,12.90
2024-01-15T17:47:08.173Z,11.18
2024-01-15T17:49:37.024Z,11.80
2024-01-15T17:52:06.188Z,11.40
2024-01-15T17:54:34.996Z,10.75
2024-01-15T17:57:03.894Z,12.25
2024-01-15T17:59:34.363Z,14.00
2024-01-15T18:02:03.257Z,11.07
2024-01-15T18:04:32.060Z,11.52
2024-01-15T18:07:00.904Z,11.43
2024-01-15T18:09:29.688Z,12.15
2024-01-15T18:12:01.958Z,12.90
2024-01-15T18:14:31.344Z,13.90
2024-01-15T18:17:01.646Z,12.13
2024-01-15T18:19:30.488Z,12.88
2024-01-15T18:21:59.503Z,12.48
2024-01-15T18:24:28.263Z,12.48
2024-01-15T18:26:57.214Z,13.52
2024-01-15T18:29:26.091Z,11.65
2024-01-15T18:31:55.218Z,11.90
2024-01-15T18:34:25.678Z,12.05
2024-01-15T18:36:54.821Z,12.23
2024-01-15T18:39:23.592Z,12.50
2024-01-15T18:41:52.496Z,11.63
2024-01-15T18:44:23.058Z,12.18
2024-01-15T18:46:52.277Z,12.65
2024-01-15T18:49:22.392Z,12.20
2024-01-15T18:51:54.530Z,12.20
2024-01-15T18:54:24.532Z,12.27
2024-01-15T18:56:55.701Z,12.50
2024-01-15T18:59:25.386Z,24.00
2024-01-15T19:01:54.253Z,13.30
2024-01-15T19:04:31.074Z,12.82
2024-01-15T19:07:01.325Z,12.45
2024-01-15T19:09:30.649Z,11.75
2024-01-15T19:11:59.710Z,12.40
2024-01-15T19:14:29.259Z,12.27
2024-01-15T19:17:02.273Z,12.35
2024-01-15T19:19:33.108Z,12.52
2024-01-15T19:22:03.792Z,12.00
2024-01-15T19:24:32.884Z,12.52
2024-01-15T19:27:04.114Z,12.55
2024-01-15T19:29:33.119Z,12.10
2024-01-15T19:32:03.588Z,12.75
2024-01-15T19:34:32.556Z,11.48
2024-01-15T19:37:03.059Z,12.75
2024-01-15T19:39:34.646Z,13.65
2024-01-15T19:42:05.005Z,11.13
2024-01-15T19:44:34.221Z,12.18
2024-01-15T19:47:04.060Z,13.52
2024-01-15T19:49:34.068Z,11.65
2024-01-15T19:52:06.062Z,12.45
2024-01-15T19:54:35.524Z,12.13
2024-01-15T19:57:04.644Z,13.23
2024-01-15T19:59:34.131Z,12.35
2024-01-15T20:02:03.003Z,12.07
2024-01-15T20:04:31.744Z,12.05
2024-01-15T20:07:03.004Z,11.98
2024-01-15T20:09:33.562Z,11.95
2024-01-15T20:12:02.877Z,11.73
2024-01-15T20:14:32.109Z,10.88
2024-01-15T20:17:05.837Z,11.25
2024-01-15T20:19:37.094Z,12.50
2024-01-15T20:22:06.938Z,12.07
2024-01-15T20:24:40.685Z,11.55
2024-01-15T20:27:10.158Z,12.02
2024-01-15T20:29:39.414Z,12.68
2024-01-15T20:32:10.329Z,10.85
2024-01-15T20:34:39.447Z,12.43
2024-01-15T20:37:08.488Z,14.32
2024-01-15T20:39:38.969Z,12.00
2024-01-15T20:42:09.014Z,11.73
2024-01-15T20:44:37.818Z,11.65
2024-01-15T20:47:07.050Z,11.50
2024-01-15T20:49:36.678Z,11.88
2024-01-15T20:52:06.920Z,11.90
2024-01-15T20:54:36.088Z,11.70
2024-01-15T20:57:06.752Z,12.88
2024-01-15T20:59:37.081Z,12.95
2024-01-15T21:02:25.042Z,13.55
2024-01-15T21:04:54.015Z,12.18
2024-01-15T21:07:23.540Z,10.38
2024-01-15T21:09:52.951Z,11.75
2024-01-15T21:12:24.463Z,11.25
2024-01-15T21:14:57.098Z,11.88
2024-01-15T21:17:26.222Z,11.95
2024-01-15T21:19:58.867Z,11.20
2024-01-15T21:22:29.979Z,11.70
2024-01-15T21:25:01.973Z,11.20
2024-01-15T21:27:34.628Z,12.40
2024-01-15T21:30:04.188Z,10.63
2024-01-15T21:32:33.585Z,11.75
2024-01-15T21:35:03.232Z,10.98
2024-01-15T21:37:37.897Z,11.65
2024-01-15T21:40:11.627Z,11.18
2024-01-15T21:42:43.279Z,11.10
2024-01-15T21:45:13.899Z,11.27
2024-01-15T21:47:44.316Z,11.38
2024-01-15T21:50:14.267Z,10.85
2024-01-15T21:52:43.373Z,11.40
2024-01-15T21:55:13.281Z,11.63
2024-01-15T21:57:43.573Z,11.25
2024-01-15T22:00:16.899Z,11.07
2024-01-15T22:02:46.989Z,10.82
2024-01-15T22:05:17.121Z,11.57
2024-01-15T22:07:46.089Z,12.05
2024-01-15T22:10:17.466Z,13.65
2024-01-15T22:12:48.781Z,10.35
2024-01-15T22:15:19.394Z,14.25
2024-01-15T22:17:53.426Z,11.73
2024-01-15T22:20:22.515Z,12.10
2024-01-15T22:22:51.685Z,12.45
2024-01-15T22:25:22.894Z,11.23
2024-01-15T22:27:53.744Z,10.63
2024-01-15T22:30:22.698Z,10.57
2024-01-15T22:32:51.609Z,11.25
2024-01-15T22:35:23.050Z,11.60
2024-01-15T22:37:52.433Z,13.73
2024-01-15T22:40:20.115Z,10.93
2024-01-15T22:42:53.195Z,13.32
2024-01-15T22:45:22.605Z,13.30
2024-01-15T22:47:51.650Z,12.18
2024-01-15T22:50:20.619Z,9.98
2024-01-15T22:52:49.409Z,11.82
2024-01-15T22:55:18.910Z,12.48
2024-01-15T22:57:47.801Z,11.85
2024-01-15T23:00:20.298Z,13.15
2024-01-15T23:02:50.686Z,11.70
2024-01-15T23:05:19.521Z,9.90
2024-01-15T23:07:48.681Z,10.10
2024-01-15T23:10:17.595Z,9.90
2024-01-15T23:12:47.839Z,11.02
2024-01-15T23:15:18.015Z,9.73
2024-01-15T23:17:47.714Z,10.38
2024-01-15T23:20:17.080Z,10.70
2024-01-15T23:22:46.071Z,10.10
2024-01-15T23:25:17.284Z,9.73
2024-01-15T23:27:50.420Z,10.10
2024-01-15T23:30:21.103Z,10.57
2024-01-15T23:32:53.446Z,11.07
2024-01-15T23:35:22.701Z,10.40
2024-01-15T23:37:51.416Z,10.80
2024-01-15T23:40:20.236Z,10.70
2024-01-15T23:42:49.057Z,9.20
2024-01-15T23:45:17.748Z,10.23
2024-01-15T23:47:49.033Z,10.60
2024-01-15T23:50:26.669Z,9.57
2024-01-15T23:52:55.846Z,10.23
2024-01-15T23:55:24.643Z,10.93
2024-01-15T23:57:53.501Z,9.88
